Time;durP1;ratioP1;P1;durP2;ratioP2;P2;SDS_P1;SDS_P2;PMS_P1;PMS_P2;Temp;Humidity;BMP_temperature;BMP_pressure;BME280_temperature;BME280_humidity;BME280_pressure;Samples;Min_cycle;Max_cycle;Signal;HPM_P1;HPM_P2
2023/08/11 00:00:59;;;;;;;2.70;2.60;;;;;;;;;;5061669;28;20458;-63
2023/08/11 00:03:26;;;;;;;2.55;2.45;;;;;;;;;;5061919;28;20267;-63
2023/08/11 00:05:53;;;;;;;2.83;2.72;;;;;;;;;;5061624;28;20202;-63
2023/08/11 00:08:21;;;;;;;2.80;2.60;;;;;;;;;;5061713;28;20524;-63
2023/08/11 00:10:47;;;;;;;2.63;2.40;;;;;;;;;;5062012;28;20221;-63
2023/08/11 00:13:14;;;;;;;2.28;2.13;;;;;;;;;;5061777;28;20207;-63
2023/08/11 00:15:40;;;;;;;2.90;2.58;;;;;;;;;;5061780;28;20276;-63
2023/08/11 00:18:08;;;;;;;2.60;2.53;;;;;;;;;;5061771;28;20208;-63
2023/08/11 00:20:34;;;;;;;2.67;2.58;;;;;;;;;;5061637;28;20197;-63
2023/08/11 00:23:01;;;;;;;2.42;2.20;;;;;;;;;;5061979;28;20208;-63
2023/08/11 00:25:28;;;;;;;2.78;2.58;;;;;;;;;;5061488;28;20208;-63
2023/08/11 00:27:54;;;;;;;2.70;2.50;;;;;;;;;;5061968;28;20425;-63
2023/08/11 00:30:21;;;;;;;3.00;2.78;;;;;;;;;;5061746;28;20224;-63
2023/08/11 00:32:48;;;;;;;5.80;2.72;;;;;;;;;;5053455;28;20203;-63
2023/08/11 00:35:15;;;;;;;3.25;2.90;;;;;;;;;;5061485;28;20219;-63
2023/08/11 00:37:41;;;;;;;2.58;2.38;;;;;;;;;;5061532;28;20212;-63
2023/08/11 00:40:08;;;;;;;2.95;2.60;;;;;;;;;;5061565;28;20391;-63
2023/08/11 00:42:36;;;;;;;2.30;2.20;;;;;;;;;;5061813;28;20353;-63
2023/08/11 00:45:03;;;;;;;2.55;2.35;;;;;;;;;;5061313;28;20411;-63
2023/08/11 00:47:29;;;;;;;2.92;2.72;;;;;;;;;;5061416;28;20463;-63
2023/08/11 00:49:56;;;;;;;2.85;2.75;;;;;;;;;;5061461;28;20221;-63
2023/08/11 00:52:23;;;;;;;2.33;2.22;;;;;;;;;;5061623;28;20272;-63
2023/08/11 00:54:49;;;;;;;4.32;2.45;;;;;;;;;;5061202;28;20201;-63
2023/08/11 00:57:15;;;;;;;2.97;2.15;;;;;;;;;;5061681;28;20231;-63
2023/08/11 00:59:43;;;;;;;2.25;2.15;;;;;;;;;;5061353;28;20206;-63
2023/08/11 01:02:10;;;;;;;2.75;2.55;;;;;;;;;;5061465;28;20201;-63
2023/08/11 01:07:42;;;;;;;4.22;3.05;;;;;;;;;;5061213;28;20259;-63
2023/08/11 01:10:13;;;;;;;2.83;2.63;;;;;;;;;;5061190;28;20224;-63
2023/08/11 01:12:46;;;;;;;2.60;2.50;;;;;;;;;;5064773;28;20201;-63
2023/08/11 01:15:17;;;;;;;2.80;2.70;;;;;;;;;;5065088;28;20404;-63
2023/08/11 01:17:46;;;;;;;4.78;2.63;;;;;;;;;;5065184;28;20200;-63
2023/08/11 01:20:15;;;;;;;3.28;2.83;;;;;;;;;;5064983;28;20203;-63
2023/08/11 01:22:44;;;;;;;3.28;2.85;;;;;;;;;;5064650;28;20508;-63
2023/08/11 01:25:12;;;;;;;3.10;2.78;;;;;;;;;;5064870;28;20208;-63
2023/08/11 01:27:44;;;;;;;3.03;2.88;;;;;;;;;;5064673;28;20455;-63
2023/08/11 01:30:10;;;;;;;3.53;2.65;;;;;;;;;;5064753;28;20421;-63
2023/08/11 01:32:38;;;;;;;3.08;2.97;;;;;;;;;;5064727;28;20455;-63
2023/08/11 01:35:05;;;;;;;2.75;2.58;;;;;;;;;;5064456;28;20192;-63
2023/08/11 01:37:31;;;;;;;3.20;3.00;;;;;;;;;;5064742;28;20223;-63
2023/08/11 01:39:58;;;;;;;3.20;2.90;;;;;;;;;;5064582;28;20197;-63
2023/08/11 01:42:25;;;;;;;3.55;3.35;;;;;;;;;;5064548;28;20374;-63
2023/08/11 01:44:52;;;;;;;3.25;2.63;;;;;;;;;;5064345;28;20430;-63
2023/08/11 01:47:18;;;;;;;3.58;3.28;;;;;;;;;;5064508;28;20267;-63
2023/08/11 01:49:45;;;;;;;2.92;2.78;;;;;;;;;;5064179;28;20240;-63
2023/08/11 01:52:11;;;;;;;3.05;2.88;;;;;;;;;;5064441;28;20208;-63
2023/08/11 01:54:38;;;;;;;4.38;2.70;;;;;;;;;;5064260;28;20281;-63
2023/08/11 01:57:05;;;;;;;2.72;2.60;;;;;;;;;;5064284;28;20504;-63
2023/08/11 01:59:32;;;;;;;2.67;2.50;;;;;;;;;;5064175;28;20201;-63
2023/08/11 02:01:59;;;;;;;3.45;2.97;;;;;;;;;;5064106;28;20209;-63
2023/08/11 02:04:25;;;;;;;3.40;2.90;;;;;;;;;;5064056;28;20209;-63
2023/08/11 02:06:51;;;;;;;2.90;2.80;;;;;;;;;;5055834;28;20205;-63
2023/08/11 02:09:18;;;;;;;3.35;2.78;;;;;;;;;;5064303;28;20400;-63
2023/08/11 02:11:44;;;;;;;3.08;2.83;;;;;;;;;;5064060;28;20223;-63
2023/08/11 02:14:10;;;;;;;2.88;2.78;;;;;;;;;;5063995;28;20227;-63
2023/08/11 02:16:38;;;;;;;3.08;2.75;;;;;;;;;;5064301;28;20231;-63
2023/08/11 02:19:04;;;;;;;2.80;2.70;;;;;;;;;;5064001;28;20221;-63
2023/08/11 02:21:31;;;;;;;3.03;2.80;;;;;;;;;;5063898;28;20243;-63
2023/08/11 02:23:57;;;;;;;4.38;2.90;;;;;;;;;;5063144;28;20209;-63
2023/08/11 02:26:23;;;;;;;3.10;3.00;;;;;;;;;;5063551;28;20209;-63
2023/08/11 02:28:50;;;;;;;2.95;2.75;;;;;;;;;;5063470;28;20225;-63
2023/08/11 02:31:17;;;;;;;3.22;3.03;;;;;;;;;;5063438;28;20235;-63
2023/08/11 02:33:45;;;;;;;2.88;2.78;;;;;;;;;;5063730;28;20497;-63
2023/08/11 02:36:11;;;;;;;2.85;2.75;;;;;;;;;;5063351;28;20201;-63
2023/08/11 02:38:38;;;;;;;2.90;2.65;;;;;;;;;;5063572;28;20526;-63
2023/08/11 02:41:04;;;;;;;3.50;2.78;;;;;;;;;;5063591;28;20201;-63
2023/08/11 02:43:31;;;;;;;3.92;3.00;;;;;;;;;;5063366;28;20201;-63
2023/08/11 02:45:57;;;;;;;4.57;2.75;;;;;;;;;;5063080;28;20268;-63
2023/08/11 02:48:23;;;;;;;2.83;2.67;;;;;;;;;;5063145;28;20208;-63
2023/08/11 02:50:51;;;;;;;2.95;2.83;;;;;;;;;;5063224;28;20232;-63
2023/08/11 02:53:17;;;;;;;3.95;3.33;;;;;;;;;;5063316;28;20437;-63
2023/08/11 02:55:43;;;;;;;3.65;2.95;;;;;;;;;;5063121;28;20219;-63
2023/08/11 02:58:10;;;;;;;3.30;3.08;;;;;;;;;;5063235;28;20205;-63
2023/08/11 03:00:36;;;;;;;3.05;2.83;;;;;;;;;;5062883;28;20193;-63
2023/08/11 03:03:03;;;;;;;3.03;2.83;;;;;;;;;;5063154;28;20211;-63
2023/08/11 03:05:29;;;;;;;3.00;2.80;;;;;;;;;;5062887;28;20197;-63
2023/08/11 03:07:57;;;;;;;2.90;2.80;;;;;;;;;;5054906;28;20196;-63
2023/08/11 03:10:23;;;;;;;5.53;3.22;;;;;;;;;;5062708;28;20221;-63
2023/08/11 03:12:50;;;;;;;3.30;3.00;;;;;;;;;;5062630;28;20201;-63
2023/08/11 03:15:17;;;;;;;2.83;2.63;;;;;;;;;;5062565;28;20197;-63
2023/08/11 03:17:43;;;;;;;3.20;2.90;;;;;;;;;;5062850;28;20204;-63
2023/08/11 03:20:12;;;;;;;3.58;3.38;;;;;;;;;;5062869;28;20501;-63
2023/08/11 03:22:39;;;;;;;2.83;2.60;;;;;;;;;;5062514;28;20224;-63
2023/08/11 03:25:09;;;;;;;3.33;3.00;;;;;;;;;;5062687;28;20201;-63
2023/08/11 03:27:35;;;;;;;3.35;2.83;;;;;;;;;;5062310;28;20223;-63
2023/08/11 03:30:02;;;;;;;3.15;2.85;;;;;;;;;;5062739;28;20197;-63
2023/08/11 03:32:29;;;;;;;3.75;3.40;;;;;;;;;;5062524;28;20197;-63
2023/08/11 03:34:55;;;;;;;3.75;3.33;;;;;;;;;;5062099;28;20197;-63
2023/08/11 03:37:21;;;;;;;3.35;3.05;;;;;;;;;;5062403;28;20264;-63
2023/08/11 03:39:47;;;;;;;3.20;3.00;;;;;;;;;;5062331;28;20501;-63
2023/08/11 03:42:15;;;;;;;5.32;2.88;;;;;;;;;;5062148;28;20199;-63
2023/08/11 03:44:42;;;;;;;2.85;2.65;;;;;;;;;;5062287;28;20200;-63
2023/08/11 03:47:08;;;;;;;2.80;2.60;;;;;;;;;;5062352;28;20207;-63
2023/08/11 03:49:34;;;;;;;3.17;2.88;;;;;;;;;;5062237;28;20216;-63
2023/08/11 03:52:01;;;;;;;4.78;3.20;;;;;;;;;;5062093;28;20411;-63
2023/08/11 03:54:27;;;;;;;4.07;3.17;;;;;;;;;;5061892;28;20204;-63
2023/08/11 03:56:53;;;;;;;3.13;2.92;;;;;;;;;;5062341;28;20209;-63
2023/08/11 03:59:21;;;;;;;3.50;3.30;;;;;;;;;;5062353;28;20197;-63
2023/08/11 04:01:47;;;;;;;3.33;3.13;;;;;;;;;;5062128;28;20209;-63
2023/08/11 04:04:14;;;;;;;3.83;3.20;;;;;;;;;;5062137;28;20197;-64
2023/08/11 04:06:40;;;;;;;4.40;3.10;;;;;;;;;;5061859;28;20523;-63
2023/08/11 04:09:06;;;;;;;3.55;3.25;;;;;;;;;;5061929;28;20265;-63
2023/08/11 04:11:33;;;;;;;3.30;3.20;;;;;;;;;;5061798;28;20240;-63
2023/08/11 04:13:59;;;;;;;5.68;3.17;;;;;;;;;;5062064;28;20197;-63
2023/08/11 04:16:28;;;;;;;4.07;2.97;;;;;;;;;;5061749;28;20197;-65
2023/08/11 04:18:54;;;;;;;4.55;3.20;;;;;;;;;;5061916;28;20447;-65
2023/08/11 04:21:20;;;;;;;3.78;3.58;;;;;;;;;;5061864;28;20200;-65
2023/08/11 04:23:47;;;;;;;3.53;3.22;;;;;;;;;;5061554;28;20434;-65
2023/08/11 04:26:13;;;;;;;6.75;3.70;;;;;;;;;;5061616;28;20205;-65
2023/08/11 04:28:43;;;;;;;3.92;3.65;;;;;;;;;;5061714;28;20217;-65
2023/08/11 04:31:09;;;;;;;3.75;3.50;;;;;;;;;;5061745;28;20217;-65
2023/08/11 04:33:37;;;;;;;3.75;3.55;;;;;;;;;;5061876;28;20197;-65
2023/08/11 04:36:03;;;;;;;9.82;3.75;;;;;;;;;;5061637;28;20264;-65
2023/08/11 04:38:30;;;;;;;4.32;3.60;;;;;;;;;;5062035;28;20203;-65
2023/08/11 04:40:57;;;;;;;5.05;3.65;;;;;;;;;;5061507;28;20193;-65
2023/08/11 04:43:23;;;;;;;4.40;3.25;;;;;;;;;;5061684;28;20197;-65
2023/08/11 04:45:50;;;;;;;6.25;4.03;;;;;;;;;;5061945;28;20404;-65
2023/08/11 04:48:16;;;;;;;6.72;3.72;;;;;;;;;;5065468;28;20201;-65
2023/08/11 04:50:47;;;;;;;4.28;3.85;;;;;;;;;;5065413;28;20220;-65
2023/08/11 04:53:13;;;;;;;3.88;3.40;;;;;;;;;;5065629;28;20201;-65
2023/08/11 04:55:40;;;;;;;6.20;3.28;;;;;;;;;;5065328;28;20220;-65
2023/08/11 04:58:06;;;;;;;4.47;3.80;;;;;;;;;;5065581;28;20201;-65
2023/08/11 05:00:33;;;;;;;4.13;3.72;;;;;;;;;;5065358;28;20201;-65
2023/08/11 05:02:59;;;;;;;8.02;3.90;;;;;;;;;;5065183;28;20239;-65
2023/08/11 05:05:26;;;;;;;3.95;3.55;;;;;;;;;;5065055;28;20524;-65
2023/08/11 05:07:53;;;;;;;4.15;3.05;;;;;;;;;;5065391;28;20651;-65
2023/08/11 05:10:20;;;;;;;5.18;3.58;;;;;;;;;;5065358;28;20226;-65
2023/08/11 05:12:46;;;;;;;5.82;3.65;;;;;;;;;;5065057;28;20217;-65
2023/08/11 05:15:13;;;;;;;3.40;3.20;;;;;;;;;;5064981;28;20501;-65
2023/08/11 05:17:39;;;;;;;4.55;3.45;;;;;;;;;;5065057;28;20219;-65
2023/08/11 05:20:07;;;;;;;4.20;3.80;;;;;;;;;;5064951;28;20201;-65
2023/08/11 05:22:33;;;;;;;4.70;4.28;;;;;;;;;;5065016;28;20276;-65
2023/08/11 05:25:02;;;;;;;7.07;4.20;;;;;;;;;;5064634;28;20197;-65
2023/08/11 05:27:29;;;;;;;5.15;4.18;;;;;;;;;;5064739;28;20224;-65
2023/08/11 05:29:56;;;;;;;5.00;4.32;;;;;;;;;;5064676;28;20516;-65
2023/08/11 05:32:23;;;;;;;5.28;4.40;;;;;;;;;;5064671;28;20225;-65
2023/08/11 05:34:49;;;;;;;4.05;3.80;;;;;;;;;;5064780;28;20201;-65
2023/08/11 05:37:16;;;;;;;5.35;3.85;;;;;;;;;;5064750;28;20243;-65
2023/08/11 05:39:43;;;;;;;5.20;4.50;;;;;;;;;;5064762;28;20224;-65
2023/08/11 05:42:11;;;;;;;5.47;5.05;;;;;;;;;;5064710;28;20201;-65
2023/08/11 05:44:37;;;;;;;7.43;4.60;;;;;;;;;;5064506;28;20220;-65
2023/08/11 05:47:04;;;;;;;5.10;4.40;;;;;;;;;;5064321;28;20193;-65
2023/08/11 05:49:30;;;;;;;4.78;4.38;;;;;;;;;;5064533;28;20205;-65
2023/08/11 05:51:56;;;;;;;4.40;4.00;;;;;;;;;;5064194;28;20580;-65
2023/08/11 05:54:23;;;;;;;6.20;4.65;;;;;;;;;;5064500;28;20205;-65
2023/08/11 05:56:52;;;;;;;5.20;4.60;;;;;;;;;;5063894;28;20208;-65
2023/08/11 05:59:20;;;;;;;7.70;4.10;;;;;;;;;;5063511;28;20520;-65
2023/08/11 06:01:46;;;;;;;4.75;4.40;;;;;;;;;;5064131;28;20197;-65
2023/08/11 06:04:12;;;;;;;4.72;4.30;;;;;;;;;;5064377;28;20203;-65
2023/08/11 06:06:39;;;;;;;6.97;4.07;;;;;;;;;;5064106;28;20208;-65
2023/08/11 06:09:05;;;;;;;4.43;4.03;;;;;;;;;;5056092;28;20429;-65
2023/08/11 06:11:32;;;;;;;5.55;4.18;;;;;;;;;;5064049;28;20221;-65
2023/08/11 06:13:58;;;;;;;7.05;4.40;;;;;;;;;;5063940;28;20209;-65
2023/08/11 06:16:25;;;;;;;5.43;4.20;;;;;;;;;;5064147;28;20204;-53
2023/08/11 06:18:52;;;;;;;4.15;3.88;;;;;;;;;;5063960;28;20201;-53
2023/08/11 06:21:18;;;;;;;4.30;4.00;;;;;;;;;;5064030;28;20240;-53
2023/08/11 06:23:44;;;;;;;5.00;4.05;;;;;;;;;;5054806;28;20219;-55
2023/08/11 06:26:14;;;;;;;3.88;3.60;;;;;;;;;;5058008;28;20213;-53
2023/08/11 06:28:41;;;;;;;6.72;4.25;;;;;;;;;;5053656;28;20552;-53
2023/08/11 06:31:09;;;;;;;4.03;3.65;;;;;;;;;;5058562;28;20415;-53
2023/08/11 06:33:37;;;;;;;6.13;3.70;;;;;;;;;;5058927;28;20220;-53
2023/08/11 06:36:03;;;;;;;5.28;3.70;;;;;;;;;;5057623;28;20235;-53
2023/08/11 06:38:32;;;;;;;5.25;3.55;;;;;;;;;;5042946;28;20213;-53
2023/08/11 06:40:58;;;;;;;6.47;3.80;;;;;;;;;;5060450;28;20276;-53
2023/08/11 06:43:25;;;;;;;5.28;4.57;;;;;;;;;;5060419;28;20209;-53
2023/08/11 06:45:51;;;;;;;5.43;3.53;;;;;;;;;;5057248;28;20222;-52
2023/08/11 06:48:17;;;;;;;4.07;3.58;;;;;;;;;;5056662;28;20213;-53
2023/08/11 06:50:45;;;;;;;4.32;3.97;;;;;;;;;;5056223;28;20276;-53
2023/08/11 06:53:11;;;;;;;4.43;4.05;;;;;;;;;;5060504;28;20453;-53
2023/08/11 06:55:37;;;;;;;4.68;4.05;;;;;;;;;;5056841;28;20213;-54
2023/08/11 06:58:04;;;;;;;7.65;3.97;;;;;;;;;;5060253;28;20209;-54
2023/08/11 07:00:30;;;;;;;4.45;4.15;;;;;;;;;;5056085;28;20243;-54
2023/08/11 07:02:57;;;;;;;4.85;4.38;;;;;;;;;;5059510;28;20205;-52
2023/08/11 07:05:23;;;;;;;5.00;4.50;;;;;;;;;;5055072;28;20209;-52
2023/08/11 07:07:51;;;;;;;3.85;3.40;;;;;;;;;;5056530;28;20213;-53
2023/08/11 07:10:17;;;;;;;4.93;4.10;;;;;;;;;;5054610;28;20403;-53
2023/08/11 07:12:43;;;;;;;4.97;4.45;;;;;;;;;;5058565;28;20251;-53
2023/08/11 07:15:10;;;;;;;8.10;3.70;;;;;;;;;;5048911;28;20210;-55
2023/08/11 07:17:36;;;;;;;4.63;4.22;;;;;;;;;;5054896;28;20216;-53
2023/08/11 07:20:03;;;;;;;4.40;3.80;;;;;;;;;;5059298;28;20462;-55
2023/08/11 07:22:29;;;;;;;4.55;3.85;;;;;;;;;;5057781;28;20212;-55
2023/08/11 07:24:57;;;;;;;7.10;4.05;;;;;;;;;;5057976;28;20284;-56
2023/08/11 07:27:23;;;;;;;5.88;3.80;;;;;;;;;;5060098;28;20232;-56
2023/08/11 07:29:49;;;;;;;3.95;3.65;;;;;;;;;;5060080;28;20213;-55
2023/08/11 07:32:15;;;;;;;3.60;3.28;;;;;;;;;;5059824;28;20228;-55
2023/08/11 07:34:42;;;;;;;4.22;3.83;;;;;;;;;;5059522;28;20209;-54
2023/08/11 07:37:08;;;;;;;6.57;3.40;;;;;;;;;;5059232;28;20431;-54
2023/08/11 07:39:35;;;;;;;3.95;3.63;;;;;;;;;;5056034;28;20209;-54
2023/08/11 07:42:03;;;;;;;3.78;3.22;;;;;;;;;;5059184;28;20209;-54
2023/08/11 07:44:29;;;;;;;3.50;3.20;;;;;;;;;;5052966;28;20208;-55
2023/08/11 07:46:56;;;;;;;3.88;3.58;;;;;;;;;;5057018;28;20221;-53
2023/08/11 07:49:22;;;;;;;3.58;3.28;;;;;;;;;;5059111;28;20209;-54
2023/08/11 07:51:49;;;;;;;4.28;3.90;;;;;;;;;;5055886;28;20560;-53
2023/08/11 07:54:16;;;;;;;4.82;3.60;;;;;;;;;;5059069;28;20209;-56
2023/08/11 07:56:43;;;;;;;6.43;3.17;;;;;;;;;;5053737;28;20525;-54
2023/08/11 07:59:11;;;;;;;5.75;3.17;;;;;;;;;;5056412;28;20201;-54
2023/08/11 08:01:37;;;;;;;3.33;3.05;;;;;;;;;;5054089;28;20276;-53
2023/08/11 08:04:04;;;;;;;4.20;3.83;;;;;;;;;;5058138;28;20466;-53
2023/08/11 08:06:30;;;;;;;7.00;3.72;;;;;;;;;;5058600;28;20437;-54
2023/08/11 08:08:57;;;;;;;10.25;3.72;;;;;;;;;;5050052;28;20219;-54
2023/08/11 08:11:23;;;;;;;4.85;3.45;;;;;;;;;;5058567;28;20271;-54
2023/08/11 08:13:49;;;;;;;3.05;2.78;;;;;;;;;;5059466;28;20420;-53
2023/08/11 08:16:17;;;;;;;3.95;3.50;;;;;;;;;;5059106;28;20215;-54
2023/08/11 08:18:43;;;;;;;5.20;3.45;;;;;;;;;;5058789;28;20209;-54
2023/08/11 08:21:11;;;;;;;4.07;3.60;;;;;;;;;;5057989;28;20216;-53
2023/08/11 08:23:38;;;;;;;4.85;2.92;;;;;;;;;;5059382;28;20250;-53
2023/08/11 08:26:04;;;;;;;3.30;3.00;;;;;;;;;;5058966;28;20216;-54
2023/08/11 08:28:30;;;;;;;4.18;3.08;;;;;;;;;;5057778;28;20228;-55
2023/08/11 08:30:56;;;;;;;3.85;3.47;;;;;;;;;;5058581;28;20244;-55
2023/08/11 08:33:24;;;;;;;2.92;2.72;;;;;;;;;;5058540;28;20405;-53
2023/08/11 08:35:50;;;;;;;5.03;3.13;;;;;;;;;;5058548;28;20284;-53
2023/08/11 08:38:17;;;;;;;13.15;3.80;;;;;;;;;;5050194;28;20212;-53
2023/08/11 08:40:43;;;;;;;8.50;2.97;;;;;;;;;;5058862;28;20524;-54
2023/08/11 08:43:09;;;;;;;6.60;3.47;;;;;;;;;;5058816;28;20216;-53
2023/08/11 08:45:36;;;;;;;3.05;2.70;;;;;;;;;;5058829;28;20366;-53
2023/08/11 08:48:06;;;;;;;3.40;3.17;;;;;;;;;;5058102;28;20217;-53
2023/08/11 08:50:33;;;;;;;5.00;3.20;;;;;;;;;;5058099;28;20284;-54
2023/08/11 08:53:01;;;;;;;2.95;2.75;;;;;;;;;;5058608;28;20239;-53
2023/08/11 08:55:27;;;;;;;3.63;2.97;;;;;;;;;;5058717;28;20213;-53
2023/08/11 08:57:55;;;;;;;3.05;2.83;;;;;;;;;;5058909;28;20502;-56
2023/08/11 09:00:23;;;;;;;3.17;2.97;;;;;;;;;;5058898;28;20208;-54
2023/08/11 09:02:49;;;;;;;2.70;2.60;;;;;;;;;;5058670;28;20215;-54
2023/08/11 09:05:15;;;;;;;3.38;3.15;;;;;;;;;;5058508;28;20877;-56
2023/08/11 09:07:43;;;;;;;4.70;2.90;;;;;;;;;;5058536;28;20209;-55
2023/08/11 09:10:09;;;;;;;4.72;2.85;;;;;;;;;;5058426;28;20212;-53
2023/08/11 09:12:36;;;;;;;3.53;2.90;;;;;;;;;;5058119;28;20290;-53
2023/08/11 09:15:06;;;;;;;3.67;2.80;;;;;;;;;;5058122;28;20213;-54
2023/08/11 09:17:32;;;;;;;5.22;3.20;;;;;;;;;;5052281;28;20209;-56
2023/08/11 09:20:00;;;;;;;4.75;2.90;;;;;;;;;;5058705;28;20205;-54
2023/08/11 09:22:26;;;;;;;4.22;2.80;;;;;;;;;;5052652;28;20209;-54
2023/08/11 09:24:55;;;;;;;3.05;2.65;;;;;;;;;;5058442;28;20216;-53
2023/08/11 09:27:21;;;;;;;3.10;2.83;;;;;;;;;;5058564;28;20236;-54
2023/08/11 09:29:49;;;;;;;5.13;2.90;;;;;;;;;;5058124;28;20200;-54
2023/08/11 09:32:15;;;;;;;2.78;2.58;;;;;;;;;;5059369;28;20228;-53
2023/08/11 09:34:43;;;;;;;4.05;2.97;;;;;;;;;;5062182;28;20209;-55
2023/08/11 09:37:10;;;;;;;2.83;2.63;;;;;;;;;;5057258;28;20216;-53
2023/08/11 09:39:36;;;;;;;2.75;2.55;;;;;;;;;;5062054;28;20216;-54
2023/08/11 09:42:04;;;;;;;3.05;2.75;;;;;;;;;;5062103;28;20213;-54
2023/08/11 09:44:31;;;;;;;3.70;2.88;;;;;;;;;;5061710;28;20504;-54
2023/08/11 09:46:57;;;;;;;4.13;2.67;;;;;;;;;;5061531;28;20232;-54
2023/08/11 09:49:23;;;;;;;2.80;2.38;;;;;;;;;;5061685;28;20238;-56
2023/08/11 09:51:50;;;;;;;5.03;2.88;;;;;;;;;;5061186;28;20544;-55
2023/08/11 09:54:17;;;;;;;3.45;2.92;;;;;;;;;;5059665;28;20235;-55
2023/08/11 09:56:44;;;;;;;4.35;2.58;;;;;;;;;;5057852;28;20215;-54
2023/08/11 09:59:12;;;;;;;5.05;2.10;;;;;;;;;;5053397;28;20385;-55
2023/08/11 10:01:38;;;;;;;2.40;2.30;;;;;;;;;;5045519;28;20215;-55
2023/08/11 10:04:10;;;;;;;2.60;2.40;;;;;;;;;;5052809;28;20216;-54
2023/08/11 10:06:37;;;;;;;2.58;2.20;;;;;;;;;;5050587;28;20215;-54
2023/08/11 10:09:05;;;;;;;2.72;2.63;;;;;;;;;;5050022;28;20439;-56
2023/08/11 10:11:32;;;;;;;3.17;2.60;;;;;;;;;;5050503;28;20209;-55
2023/08/11 10:14:01;;;;;;;3.80;2.25;;;;;;;;;;5056164;28;20216;-54
2023/08/11 10:16:29;;;;;;;2.90;2.67;;;;;;;;;;5057452;28;20583;-54
2023/08/11 10:18:56;;;;;;;3.05;2.67;;;;;;;;;;5053364;28;20479;-56
2023/08/11 10:21:22;;;;;;;2.78;2.58;;;;;;;;;;5057336;28;20205;-54
2023/08/11 10:23:49;;;;;;;2.95;2.70;;;;;;;;;;5047591;28;20454;-54
2023/08/11 10:26:15;;;;;;;2.50;2.40;;;;;;;;;;5056600;28;20235;-54
2023/08/11 10:28:42;;;;;;;3.38;2.42;;;;;;;;;;5052006;28;20646;-54
2023/08/11 10:31:08;;;;;;;2.75;2.38;;;;;;;;;;5056244;28;21202;-55
2023/08/11 10:33:35;;;;;;;2.90;2.70;;;;;;;;;;5055611;28;20228;-56
2023/08/11 10:36:02;;;;;;;2.72;2.53;;;;;;;;;;5054132;28;20220;-54
2023/08/11 10:38:29;;;;;;;2.63;2.45;;;;;;;;;;5051783;28;20215;-55
2023/08/11 10:41:03;;;;;;;2.45;2.33;;;;;;;;;;5054192;28;20213;-56
2023/08/11 10:43:30;;;;;;;2.45;2.22;;;;;;;;;;5051086;28;20404;-56
2023/08/11 10:45:57;;;;;;;2.40;2.20;;;;;;;;;;5050383;28;20497;-56
2023/08/11 10:48:23;;;;;;;2.17;2.17;;;;;;;;;;5057345;28;20219;-55
2023/08/11 10:50:51;;;;;;;2.78;2.58;;;;;;;;;;5048585;28;20216;-55
2023/08/11 10:53:18;;;;;;;2.10;1.92;;;;;;;;;;5056537;28;20220;-55
2023/08/11 10:55:53;;;;;;;2.38;2.03;;;;;;;;;;5057102;28;20403;-54
2023/08/11 10:58:20;;;;;;;2.30;2.10;;;;;;;;;;5057284;28;20254;-55
2023/08/11 11:00:48;;;;;;;2.42;2.22;;;;;;;;;;5050419;28;20251;-56
2023/08/11 11:03:14;;;;;;;2.20;2.10;;;;;;;;;;5053933;28;20215;-54
2023/08/11 11:05:41;;;;;;;5.38;2.22;;;;;;;;;;5056902;28;20201;-53
2023/08/11 11:08:09;;;;;;;2.22;2.13;;;;;;;;;;5056196;28;20212;-53
2023/08/11 11:10:35;;;;;;;2.83;2.00;;;;;;;;;;5054666;28;20213;-54
2023/08/11 11:13:02;;;;;;;2.42;2.22;;;;;;;;;;5048950;28;20233;-54
2023/08/11 11:15:29;;;;;;;2.30;2.20;;;;;;;;;;5054451;28;20208;-55
2023/08/11 11:17:56;;;;;;;1.65;1.65;;;;;;;;;;5048727;28;20216;-54
2023/08/11 11:20:22;;;;;;;2.35;1.95;;;;;;;;;;5043443;28;20563;-54
2023/08/11 11:22:48;;;;;;;1.98;1.88;;;;;;;;;;5044308;28;20209;-55
2023/08/11 11:25:17;;;;;;;2.20;2.10;;;;;;;;;;5055090;28;20396;-54
2023/08/11 11:27:43;;;;;;;2.47;1.77;;;;;;;;;;5054671;28;20228;-54
2023/08/11 11:30:10;;;;;;;2.47;1.52;;;;;;;;;;5053204;28;20213;-55
2023/08/11 11:32:38;;;;;;;1.70;1.70;;;;;;;;;;5049880;28;20258;-54
2023/08/11 11:35:05;;;;;;;1.92;1.83;;;;;;;;;;5055912;28;20219;-55
2023/08/11 11:37:33;;;;;;;2.50;2.25;;;;;;;;;;5050156;28;20228;-54
2023/08/11 11:40:03;;;;;;;2.15;2.08;;;;;;;;;;5045546;28;20220;-55
2023/08/11 11:42:31;;;;;;;3.45;2.38;;;;;;;;;;5052827;28;20488;-55
2023/08/11 11:44:58;;;;;;;2.05;1.95;;;;;;;;;;5056461;28;20211;-54
2023/08/11 11:47:24;;;;;;;1.73;1.63;;;;;;;;;;5055428;28;20212;-55
2023/08/11 11:49:54;;;;;;;2.35;2.05;;;;;;;;;;5046879;28;20460;-55
2023/08/11 11:52:20;;;;;;;2.40;2.30;;;;;;;;;;5051009;28;20223;-53
2023/08/11 11:54:50;;;;;;;1.92;1.70;;;;;;;;;;5053922;28;20247;-54
2023/08/11 11:57:16;;;;;;;1.70;1.70;;;;;;;;;;5055625;28;20212;-54
2023/08/11 11:59:46;;;;;;;2.15;2.05;;;;;;;;;;5040863;28;20209;-55
2023/08/11 12:02:12;;;;;;;5.05;1.98;;;;;;;;;;5053881;28;20220;-55
2023/08/11 12:04:40;;;;;;;1.90;1.80;;;;;;;;;;5046886;28;20598;-55
2023/08/11 12:07:07;;;;;;;2.10;2.00;;;;;;;;;;5047154;28;20209;-54
2023/08/11 12:09:34;;;;;;;1.88;1.73;;;;;;;;;;5045637;28;20369;-53
2023/08/11 12:12:03;;;;;;;2.55;1.88;;;;;;;;;;5044179;28;20262;-54
2023/08/11 12:14:29;;;;;;;2.03;1.92;;;;;;;;;;5045884;28;20291;-55
2023/08/11 12:16:58;;;;;;;2.00;1.90;;;;;;;;;;5047505;28;20280;-56
2023/08/11 12:19:24;;;;;;;1.88;1.88;;;;;;;;;;5050628;28;20208;-55
2023/08/11 12:21:50;;;;;;;1.80;1.70;;;;;;;;;;5054728;28;20213;-54
2023/08/11 12:24:16;;;;;;;3.65;2.03;;;;;;;;;;5045024;28;20405;-54
2023/08/11 12:26:43;;;;;;;1.58;1.52;;;;;;;;;;5055595;28;20409;-55
2023/08/11 12:29:09;;;;;;;3.85;1.92;;;;;;;;;;5047190;28;20244;-54
2023/08/11 12:31:35;;;;;;;2.08;1.88;;;;;;;;;;5038683;28;20209;-54
2023/08/11 12:34:03;;;;;;;1.42;1.42;;;;;;;;;;5042117;28;20225;-55
2023/08/11 12:36:29;;;;;;;1.80;1.80;;;;;;;;;;5050084;28;20208;-55
2023/08/11 12:38:55;;;;;;;2.20;1.98;;;;;;;;;;5044554;28;20213;-54
2023/08/11 12:41:23;;;;;;;2.13;2.00;;;;;;;;;;5055600;28;20547;-55
2023/08/11 12:43:49;;;;;;;3.95;1.90;;;;;;;;;;5055493;28;20463;-54
2023/08/11 12:46:16;;;;;;;4.88;1.73;;;;;;;;;;5055271;28;20388;-55
2023/08/11 12:48:42;;;;;;;4.43;1.83;;;;;;;;;;5050659;28;20247;-54
2023/08/11 12:51:10;;;;;;;3.25;1.88;;;;;;;;;;5048109;28;20778;-55
2023/08/11 12:53:36;;;;;;;2.03;1.90;;;;;;;;;;5055160;28;20464;-55
2023/08/11 12:56:03;;;;;;;2.00;1.90;;;;;;;;;;5048555;28;20204;-54
2023/08/11 12:58:29;;;;;;;1.60;1.50;;;;;;;;;;5054847;28;20205;-53
2023/08/11 13:00:55;;;;;;;3.08;1.77;;;;;;;;;;5050007;28;20213;-54
2023/08/11 13:03:21;;;;;;;1.80;1.70;;;;;;;;;;5043481;28;20209;-55
2023/08/11 13:05:48;;;;;;;2.00;1.90;;;;;;;;;;5055181;28;20572;-54
2023/08/11 13:08:16;;;;;;;1.77;1.67;;;;;;;;;;5045272;28;20209;-53
2023/08/11 13:10:42;;;;;;;2.58;2.20;;;;;;;;;;5052683;28;20216;-53
2023/08/11 13:13:08;;;;;;;1.90;1.90;;;;;;;;;;5055571;28;21149;-54
2023/08/11 13:15:35;;;;;;;2.13;1.90;;;;;;;;;;5058769;28;20516;-53
2023/08/11 13:18:02;;;;;;;2.20;2.20;;;;;;;;;;5054982;28;20533;-54
2023/08/11 13:20:28;;;;;;;1.65;1.65;;;;;;;;;;5058385;28;20208;-54
2023/08/11 13:22:55;;;;;;;3.38;1.83;;;;;;;;;;5052617;28;20213;-55
2023/08/11 13:25:22;;;;;;;2.10;1.90;;;;;;;;;;5056979;28;20208;-55
2023/08/11 13:27:49;;;;;;;1.83;1.83;;;;;;;;;;5055354;28;20547;-56
2023/08/11 13:30:15;;;;;;;5.30;2.45;;;;;;;;;;5058142;28;20213;-55
2023/08/11 13:32:41;;;;;;;3.22;2.35;;;;;;;;;;5056357;28;20517;-55
2023/08/11 13:35:09;;;;;;;2.40;1.92;;;;;;;;;;5054285;28;20224;-53
2023/08/11 13:37:35;;;;;;;3.80;1.70;;;;;;;;;;5045966;28;20524;-54
2023/08/11 13:40:02;;;;;;;1.90;1.88;;;;;;;;;;5044980;28;20472;-55
2023/08/11 13:42:29;;;;;;;4.55;1.92;;;;;;;;;;5046891;28;20232;-54
2023/08/11 13:44:55;;;;;;;2.00;2.00;;;;;;;;;;5056254;28;20208;-55
2023/08/11 13:47:22;;;;;;;2.35;1.92;;;;;;;;;;5042702;28;20556;-55
2023/08/11 13:49:48;;;;;;;3.80;2.00;;;;;;;;;;5044676;28;20303;-54
2023/08/11 13:52:14;;;;;;;1.95;1.85;;;;;;;;;;5054947;28;20218;-54
2023/08/11 13:54:42;;;;;;;2.25;2.17;;;;;;;;;;5045165;28;20567;-53
2023/08/11 13:57:08;;;;;;;2.05;1.95;;;;;;;;;;5047549;28;20220;-54
2023/08/11 13:59:36;;;;;;;2.10;2.00;;;;;;;;;;5039330;28;20209;-53
2023/08/11 14:02:02;;;;;;;2.00;1.90;;;;;;;;;;5042781;28;20224;-53
2023/08/11 14:04:29;;;;;;;3.53;1.88;;;;;;;;;;5044406;28;20422;-54
2023/08/11 14:06:55;;;;;;;2.30;2.10;;;;;;;;;;5047786;28;20217;-54
2023/08/11 14:09:21;;;;;;;1.95;1.92;;;;;;;;;;5051767;28;21180;-54
2023/08/11 14:11:48;;;;;;;1.85;1.70;;;;;;;;;;5054555;28;20213;-53
2023/08/11 14:14:14;;;;;;;2.10;1.90;;;;;;;;;;5046123;28;20228;-53
2023/08/11 14:16:41;;;;;;;1.85;1.75;;;;;;;;;;5057301;28;20208;-55
2023/08/11 14:19:08;;;;;;;1.90;1.90;;;;;;;;;;5053616;28;20216;-55
2023/08/11 14:21:34;;;;;;;1.98;1.88;;;;;;;;;;5047812;28;20348;-54
2023/08/11 14:24:00;;;;;;;2.00;1.90;;;;;;;;;;5046723;28;20206;-54
2023/08/11 14:26:26;;;;;;;3.33;1.88;;;;;;;;;;5040156;28;20731;-54
2023/08/11 14:28:53;;;;;;;2.05;1.95;;;;;;;;;;5052886;28;20572;-55
2023/08/11 14:31:20;;;;;;;2.17;1.80;;;;;;;;;;5048858;28;20213;-55
2023/08/11 14:33:48;;;;;;;5.30;2.05;;;;;;;;;;5050512;28;20225;-54
2023/08/11 14:36:14;;;;;;;2.00;2.00;;;;;;;;;;5050564;28;20205;-55
2023/08/11 14:38:40;;;;;;;2.20;2.10;;;;;;;;;;5045385;28;20516;-54
2023/08/11 14:41:07;;;;;;;3.83;1.90;;;;;;;;;;5049673;28;20521;-54
2023/08/11 14:43:33;;;;;;;1.73;1.70;;;;;;;;;;5050968;28;20208;-55